Hlavní strana
METAR-TAF:

METAR-TAF

Letiště :

Letiště Houariho Boumédièna

Alžír, Alžírsko

zeměpisná šířka: 36-43N, zeměpisná délka: 003-15E, výška: 25 m

Aktuální stav počasí

Zpráva byla vytvořena před 41 minutami, v 20:30 UTC
Bezvětří
Teplota 18°C
Vlhkost vzduchu 77%
Tlak 1016 hPa
Viditelnost 10 km a více
Žádná oblačnost pod 1500 m, nevyskytují se cumulonimby.

METAR: DAAG 232030Z 00000KT CAVOK 18/14 Q1016

Čas: 22:11 (21:11 UTC)

Předpověď počasí

Zpráva byla vytvořena před 4 hodinami a 11 minutami, v 17:00 UTC
Předpověď platná od 23 v 18 UTC do 24 v 18 UTC
Východoseverovýchodní vítr 10 kt
Viditelnost 10 km a více
Skoro jasno ve výšce 2600 ft
Změna
od 23 v 19 UTC do 23 v 22 UTC
vítr z různých směrů 2 kt
Změna
od 24 v 09 UTC do 24 v 12 UTC
Severoseverovýchodní vítr 10 kt

TAF: DAAG 231700Z 2318/2418 06010KT 9999 FEW026 BECMG 2319/2322 VRB02KT BECMG 2409/2412 02010KT

Stav a předpovědi počasí z více než 4 000 letišť (zprávy METAR a TAF).

Červené a žluté tečky na mapě představují dostupné meteorologické stanice.

Když kurzor umístíte na tečku, zobrazí se název stanice.

Pak kliknutím zobrazíte stav a předpověď počasí.

Chcete-li změnit mapu, kliknutím na zelené tlačítko se znaménkem +mapu přiblížíte, kliknutím na zelené tlačítko se znaménkem – mapu oddálíte a kliknutím na zelené šipky přejdete na sousední mapy.


METAR-TAF: